sensor_id;sensor_type;location;lat;lon;timestamp;pressure;altitude;pressure_sealevel;temperature;humidity
71384;BME280;67558;52.166;5.004;2023-02-04T00:00:12;103372.41;;;10.98;61.92
71384;BME280;67558;52.166;5.004;2023-02-04T00:02:40;103376.50;;;10.94;62.00
71384;BME280;67558;52.166;5.004;2023-02-04T00:05:05;103369.28;;;10.88;62.16
71384;BME280;67558;52.166;5.004;2023-02-04T00:07:31;103378.19;;;10.89;62.16
71384;BME280;67558;52.166;5.004;2023-02-04T00:09:56;103371.16;;;10.81;62.51
71384;BME280;67558;52.166;5.004;2023-02-04T00:12:22;103375.06;;;10.85;62.47
71384;BME280;67558;52.166;5.004;2023-02-04T00:14:47;103370.72;;;10.84;62.76
71384;BME280;67558;52.166;5.004;2023-02-04T00:17:12;103378.19;;;10.82;62.69
71384;BME280;67558;52.166;5.004;2023-02-04T00:19:39;103389.69;;;10.82;62.85
71384;BME280;67558;52.166;5.004;2023-02-04T00:22:05;103383.09;;;10.78;62.65
71384;BME280;67558;52.166;5.004;2023-02-04T00:24:32;103377.31;;;10.75;62.75
71384;BME280;67558;52.166;5.004;2023-02-04T00:26:57;103380.00;;;10.75;62.79
71384;BME280;67558;52.166;5.004;2023-02-04T00:29:23;103386.78;;;10.71;63.02
71384;BME280;67558;52.166;5.004;2023-02-04T00:31:48;103380.41;;;10.58;63.03
71384;BME280;67558;52.166;5.004;2023-02-04T00:34:13;103383.25;;;10.57;63.15
71384;BME280;67558;52.166;5.004;2023-02-04T00:36:39;103381.19;;;10.52;63.20
71384;BME280;67558;52.166;5.004;2023-02-04T00:39:04;103381.81;;;10.48;63.57
71384;BME280;67558;52.166;5.004;2023-02-04T00:41:29;103386.91;;;10.42;63.79
71384;BME280;67558;52.166;5.004;2023-02-04T00:43:55;103397.19;;;10.39;63.74
71384;BME280;67558;52.166;5.004;2023-02-04T00:46:20;103400.47;;;10.34;63.88
71384;BME280;67558;52.166;5.004;2023-02-04T00:48:45;103408.72;;;10.33;64.05
71384;BME280;67558;52.166;5.004;2023-02-04T00:51:11;103407.44;;;10.29;64.11
71384;BME280;67558;52.166;5.004;2023-02-04T00:53:36;103411.53;;;10.24;64.30
71384;BME280;67558;52.166;5.004;2023-02-04T00:56:01;103410.66;;;10.17;64.47
71384;BME280;67558;52.166;5.004;2023-02-04T00:58:27;103411.88;;;10.15;64.62
71384;BME280;67558;52.166;5.004;2023-02-04T01:00:52;103421.34;;;10.17;64.76
71384;BME280;67558;52.166;5.004;2023-02-04T01:03:18;103414.38;;;10.16;64.78
71384;BME280;67558;52.166;5.004;2023-02-04T01:05:43;103412.72;;;10.15;64.74
71384;BME280;67558;52.166;5.004;2023-02-04T01:08:08;103413.72;;;10.14;64.78
71384;BME280;67558;52.166;5.004;2023-02-04T01:10:34;103411.47;;;10.11;64.76
71384;BME280;67558;52.166;5.004;2023-02-04T01:12:59;103427.53;;;10.11;64.76
71384;BME280;67558;52.166;5.004;2023-02-04T01:15:25;103426.25;;;10.07;64.94
71384;BME280;67558;52.166;5.004;2023-02-04T01:17:50;103421.91;;;10.06;64.96
71384;BME280;67558;52.166;5.004;2023-02-04T01:20:16;103422.50;;;10.01;65.04
71384;BME280;67558;52.166;5.004;2023-02-04T01:22:42;103429.13;;;10.05;65.03
71384;BME280;67558;52.166;5.004;2023-02-04T01:25:07;103435.09;;;10.08;65.32
71384;BME280;67558;52.166;5.004;2023-02-04T01:27:33;103432.84;;;10.04;65.35
71384;BME280;67558;52.166;5.004;2023-02-04T01:29:58;103441.69;;;10.05;65.40
71384;BME280;67558;52.166;5.004;2023-02-04T01:32:23;103446.81;;;10.07;65.50
71384;BME280;67558;52.166;5.004;2023-02-04T01:34:49;103455.47;;;10.09;65.63
71384;BME280;67558;52.166;5.004;2023-02-04T01:37:14;103459.63;;;10.11;65.63
71384;BME280;67558;52.166;5.004;2023-02-04T01:39:39;103463.09;;;10.12;65.77
71384;BME280;67558;52.166;5.004;2023-02-04T01:42:05;103468.44;;;10.12;65.88
71384;BME280;67558;52.166;5.004;2023-02-04T01:44:30;103472.41;;;10.16;65.96
71384;BME280;67558;52.166;5.004;2023-02-04T01:46:56;103465.59;;;10.13;66.04
71384;BME280;67558;52.166;5.004;2023-02-04T01:49:22;103465.81;;;10.18;66.04
71384;BME280;67558;52.166;5.004;2023-02-04T01:51:48;103458.81;;;10.17;65.91
71384;BME280;67558;52.166;5.004;2023-02-04T01:54:14;103457.97;;;10.17;65.95
71384;BME280;67558;52.166;5.004;2023-02-04T01:56:44;103460.88;;;10.15;66.07
71384;BME280;67558;52.166;5.004;2023-02-04T01:59:12;103471.16;;;10.18;66.40
71384;BME280;67558;52.166;5.004;2023-02-04T02:01:47;103475.69;;;10.18;66.38
71384;BME280;67558;52.166;5.004;2023-02-04T02:04:15;103476.50;;;10.18;66.25
71384;BME280;67558;52.166;5.004;2023-02-04T02:06:44;103485.16;;;10.20;66.39
71384;BME280;67558;52.166;5.004;2023-02-04T02:09:11;103477.34;;;10.19;66.28
71384;BME280;67558;52.166;5.004;2023-02-04T02:11:36;103487.22;;;10.18;66.28
71384;BME280;67558;52.166;5.004;2023-02-04T02:14:02;103482.69;;;10.19;66.15
71384;BME280;67558;52.166;5.004;2023-02-04T02:16:27;103485.34;;;10.19;66.27
71384;BME280;67558;52.166;5.004;2023-02-04T02:18:53;103488.22;;;10.17;66.39
71384;BME280;67558;52.166;5.004;2023-02-04T02:21:23;103490.06;;;10.17;66.46
71384;BME280;67558;52.166;5.004;2023-02-04T02:23:54;103484.94;;;10.15;66.38
71384;BME280;67558;52.166;5.004;2023-02-04T02:26:25;103491.31;;;10.14;66.71
71384;BME280;67558;52.166;5.004;2023-02-04T02:28:51;103499.31;;;10.14;66.27
71384;BME280;67558;52.166;5.004;2023-02-04T02:31:19;103487.19;;;10.12;66.28
71384;BME280;67558;52.166;5.004;2023-02-04T02:33:45;103492.91;;;10.09;66.21
71384;BME280;67558;52.166;5.004;2023-02-04T02:36:11;103496.44;;;10.09;66.27
71384;BME280;67558;52.166;5.004;2023-02-04T02:38:37;103488.16;;;10.04;66.45
71384;BME280;67558;52.166;5.004;2023-02-04T02:41:03;103494.53;;;10.03;66.54
71384;BME280;67558;52.166;5.004;2023-02-04T02:43:29;103492.84;;;10.02;66.54
71384;BME280;67558;52.166;5.004;2023-02-04T02:45:57;103490.78;;;9.97;66.76
71384;BME280;67558;52.166;5.004;2023-02-04T02:48:23;103495.75;;;10.00;66.78
71384;BME280;67558;52.166;5.004;2023-02-04T02:50:49;103499.25;;;10.01;66.84
71384;BME280;67558;52.166;5.004;2023-02-04T02:53:16;103497.38;;;10.01;67.00
71384;BME280;67558;52.166;5.004;2023-02-04T02:55:43;103498.84;;;10.04;66.99
71384;BME280;67558;52.166;5.004;2023-02-04T02:58:23;103498.84;;;10.04;67.00
71384;BME280;67558;52.166;5.004;2023-02-04T03:00:49;103509.97;;;10.08;66.91
71384;BME280;67558;52.166;5.004;2023-02-04T03:03:25;103501.50;;;10.04;67.11
71384;BME280;67558;52.166;5.004;2023-02-04T03:05:54;103506.50;;;10.07;67.10
71384;BME280;67558;52.166;5.004;2023-02-04T03:08:22;103498.66;;;10.05;66.87
71384;BME280;67558;52.166;5.004;2023-02-04T03:10:48;103500.09;;;10.08;66.74
71384;BME280;67558;52.166;5.004;2023-02-04T03:13:14;103499.56;;;10.19;66.27
71384;BME280;67558;52.166;5.004;2023-02-04T03:15:42;103502.41;;;10.11;66.46
71384;BME280;67558;52.166;5.004;2023-02-04T03:18:09;103499.88;;;10.03;66.38
71384;BME280;67558;52.166;5.004;2023-02-04T03:20:34;103507.09;;;10.02;66.20
71384;BME280;67558;52.166;5.004;2023-02-04T03:23:01;103506.00;;;9.97;66.03
71384;BME280;67558;52.166;5.004;2023-02-04T03:25:26;103505.13;;;9.90;66.15
71384;BME280;67558;52.166;5.004;2023-02-04T03:27:53;103505.56;;;9.93;66.01
71384;BME280;67558;52.166;5.004;2023-02-04T03:30:20;103498.31;;;9.87;66.00
71384;BME280;67558;52.166;5.004;2023-02-04T03:32:45;103508.31;;;9.78;66.14
71384;BME280;67558;52.166;5.004;2023-02-04T03:35:11;103498.84;;;9.76;66.04
71384;BME280;67558;52.166;5.004;2023-02-04T03:37:36;103500.47;;;9.70;66.00
71384;BME280;67558;52.166;5.004;2023-02-04T03:40:02;103504.91;;;9.63;66.04
71384;BME280;67558;52.166;5.004;2023-02-04T03:42:27;103504.69;;;9.58;66.27
71384;BME280;67558;52.166;5.004;2023-02-04T03:44:53;103503.41;;;9.54;66.29
71384;BME280;67558;52.166;5.004;2023-02-04T03:47:18;103506.31;;;9.59;66.08
71384;BME280;67558;52.166;5.004;2023-02-04T03:49:43;103510.16;;;9.50;66.23
71384;BME280;67558;52.166;5.004;2023-02-04T03:52:09;103506.38;;;9.44;66.45
71384;BME280;67558;52.166;5.004;2023-02-04T03:54:34;103513.34;;;9.38;66.26
71384;BME280;67558;52.166;5.004;2023-02-04T03:56:59;103511.25;;;9.34;66.30
71384;BME280;67558;52.166;5.004;2023-02-04T03:59:25;103522.09;;;9.32;66.37
71384;BME280;67558;52.166;5.004;2023-02-04T04:01:50;103509.63;;;9.39;65.98
71384;BME280;67558;52.166;5.004;2023-02-04T04:04:17;103517.78;;;9.31;66.00
71384;BME280;67558;52.166;5.004;2023-02-04T04:06:42;103517.28;;;9.21;66.36
71384;BME280;67558;52.166;5.004;2023-02-04T04:09:07;103513.97;;;9.19;66.59
71384;BME280;67558;52.166;5.004;2023-02-04T04:11:33;103513.31;;;9.17;66.82
71384;BME280;67558;52.166;5.004;2023-02-04T04:13:58;103512.28;;;9.18;66.90
71384;BME280;67558;52.166;5.004;2023-02-04T04:16:25;103514.78;;;9.19;66.81
71384;BME280;67558;52.166;5.004;2023-02-04T04:18:51;103521.34;;;9.17;66.64
71384;BME280;67558;52.166;5.004;2023-02-04T04:21:16;103525.94;;;9.23;66.98
71384;BME280;67558;52.166;5.004;2023-02-04T04:23:41;103533.94;;;9.23;66.98
71384;BME280;67558;52.166;5.004;2023-02-04T04:26:07;103538.25;;;9.24;67.25
71384;BME280;67558;52.166;5.004;2023-02-04T04:28:32;103532.44;;;9.20;67.07
71384;BME280;67558;52.166;5.004;2023-02-04T04:30:57;103527.13;;;9.20;66.95
71384;BME280;67558;52.166;5.004;2023-02-04T04:33:23;103522.63;;;9.21;66.69
71384;BME280;67558;52.166;5.004;2023-02-04T04:35:48;103523.44;;;9.21;66.74
71384;BME280;67558;52.166;5.004;2023-02-04T04:38:13;103518.91;;;9.22;66.98
71384;BME280;67558;52.166;5.004;2023-02-04T04:40:39;103523.25;;;9.23;66.79
71384;BME280;67558;52.166;5.004;2023-02-04T04:43:04;103526.34;;;9.27;67.04
71384;BME280;67558;52.166;5.004;2023-02-04T04:45:29;103533.72;;;9.25;66.95
71384;BME280;67558;52.166;5.004;2023-02-04T04:47:55;103548.94;;;9.24;67.05
71384;BME280;67558;52.166;5.004;2023-02-04T04:50:21;103544.16;;;9.19;66.95
71384;BME280;67558;52.166;5.004;2023-02-04T04:52:46;103533.31;;;9.21;67.04
71384;BME280;67558;52.166;5.004;2023-02-04T04:55:12;103522.97;;;9.18;67.18
71384;BME280;67558;52.166;5.004;2023-02-04T04:57:37;103536.63;;;9.23;67.24
71384;BME280;67558;52.166;5.004;2023-02-04T05:00:04;103534.59;;;9.25;67.16
71384;BME280;67558;52.166;5.004;2023-02-04T05:02:30;103540.34;;;9.29;67.17
71384;BME280;67558;52.166;5.004;2023-02-04T05:04:55;103540.00;;;9.32;67.09
71384;BME280;67558;52.166;5.004;2023-02-04T05:07:21;103537.09;;;9.33;67.09
71384;BME280;67558;52.166;5.004;2023-02-04T05:09:46;103535.72;;;9.37;66.99
71384;BME280;67558;52.166;5.004;2023-02-04T05:12:11;103533.03;;;9.37;67.07
71384;BME280;67558;52.166;5.004;2023-02-04T05:14:37;103527.06;;;9.35;67.00
71384;BME280;67558;52.166;5.004;2023-02-04T05:17:02;103535.53;;;9.39;66.99
71384;BME280;67558;52.166;5.004;2023-02-04T05:19:27;103552.03;;;9.42;67.00
71384;BME280;67558;52.166;5.004;2023-02-04T05:21:53;103539.66;;;9.41;66.72
71384;BME280;67558;52.166;5.004;2023-02-04T05:24:18;103540.06;;;9.38;66.83
71384;BME280;67558;52.166;5.004;2023-02-04T05:26:43;103542.09;;;9.36;66.62
71384;BME280;67558;52.166;5.004;2023-02-04T05:29:09;103538.78;;;9.34;66.67
71384;BME280;67558;52.166;5.004;2023-02-04T05:31:34;103547.38;;;9.30;66.58
71384;BME280;67558;52.166;5.004;2023-02-04T05:34:00;103561.53;;;9.30;66.54
71384;BME280;67558;52.166;5.004;2023-02-04T05:36:28;103556.94;;;9.24;66.46
71384;BME280;67558;52.166;5.004;2023-02-04T05:38:53;103566.75;;;9.17;66.45
71384;BME280;67558;52.166;5.004;2023-02-04T05:41:19;103573.72;;;9.18;66.78
71384;BME280;67558;52.166;5.004;2023-02-04T05:43:44;103567.75;;;9.16;66.48
71384;BME280;67558;52.166;5.004;2023-02-04T05:46:09;103571.16;;;9.10;66.84
71384;BME280;67558;52.166;5.004;2023-02-04T05:48:35;103576.78;;;9.15;66.78
71384;BME280;67558;52.166;5.004;2023-02-04T05:51:00;103578.81;;;9.13;66.98
71384;BME280;67558;52.166;5.004;2023-02-04T05:53:25;103580.28;;;9.15;67.04
71384;BME280;67558;52.166;5.004;2023-02-04T05:55:51;103588.94;;;9.17;66.96
71384;BME280;67558;52.166;5.004;2023-02-04T05:58:16;103579.44;;;9.15;67.06
71384;BME280;67558;52.166;5.004;2023-02-04T06:00:41;103585.44;;;9.17;66.65
71384;BME280;67558;52.166;5.004;2023-02-04T06:03:07;103586.44;;;9.16;66.78
71384;BME280;67558;52.166;5.004;2023-02-04T06:05:32;103579.63;;;9.13;66.66
71384;BME280;67558;52.166;5.004;2023-02-04T06:07:57;103581.47;;;9.13;66.65
71384;BME280;67558;52.166;5.004;2023-02-04T06:10:23;103586.19;;;9.11;66.85
71384;BME280;67558;52.166;5.004;2023-02-04T06:12:48;103582.47;;;9.12;66.93
71384;BME280;67558;52.166;5.004;2023-02-04T06:15:14;103586.53;;;9.08;66.93
71384;BME280;67558;52.166;5.004;2023-02-04T06:17:39;103591.69;;;9.09;66.94
71384;BME280;67558;52.166;5.004;2023-02-04T06:20:05;103597.84;;;9.10;66.83
71384;BME280;67558;52.166;5.004;2023-02-04T06:22:30;103606.72;;;9.10;66.94
71384;BME280;67558;52.166;5.004;2023-02-04T06:24:56;103606.91;;;9.09;67.07
71384;BME280;67558;52.166;5.004;2023-02-04T06:27:21;103620.72;;;9.12;67.11
71384;BME280;67558;52.166;5.004;2023-02-04T06:29:53;103622.34;;;9.13;67.15
71384;BME280;67558;52.166;5.004;2023-02-04T06:32:20;103623.00;;;9.15;67.27
71384;BME280;67558;52.166;5.004;2023-02-04T06:34:45;103616.84;;;9.15;67.28
71384;BME280;67558;52.166;5.004;2023-02-04T06:37:11;103624.47;;;9.18;67.36
71384;BME280;67558;52.166;5.004;2023-02-04T06:39:38;103634.41;;;9.24;67.28
71384;BME280;67558;52.166;5.004;2023-02-04T06:42:04;103634.06;;;9.27;67.38
71384;BME280;67558;52.166;5.004;2023-02-04T06:44:29;103640.22;;;9.28;67.24
71384;BME280;67558;52.166;5.004;2023-02-04T06:46:55;103635.50;;;9.30;67.34
71384;BME280;67558;52.166;5.004;2023-02-04T06:49:20;103636.97;;;9.32;67.45
71384;BME280;67558;52.166;5.004;2023-02-04T06:51:45;103639.25;;;9.35;67.39
71384;BME280;67558;52.166;5.004;2023-02-04T06:54:12;103648.13;;;9.36;67.44
71384;BME280;67558;52.166;5.004;2023-02-04T06:56:38;103639.25;;;9.35;67.34
71384;BME280;67558;52.166;5.004;2023-02-04T06:59:03;103648.38;;;9.41;67.36
71384;BME280;67558;52.166;5.004;2023-02-04T07:01:28;103651.06;;;9.41;67.31
71384;BME280;67558;52.166;5.004;2023-02-04T07:03:54;103650.47;;;9.46;67.31
71384;BME280;67558;52.166;5.004;2023-02-04T07:06:19;103652.97;;;9.47;67.45
71384;BME280;67558;52.166;5.004;2023-02-04T07:08:44;103643.94;;;9.48;67.06
71384;BME280;67558;52.166;5.004;2023-02-04T07:11:11;103648.28;;;9.49;66.87
71384;BME280;67558;52.166;5.004;2023-02-04T07:13:36;103653.06;;;9.54;67.08
71384;BME280;67558;52.166;5.004;2023-02-04T07:16:02;103660.66;;;9.57;67.20
71384;BME280;67558;52.166;5.004;2023-02-04T07:18:27;103661.53;;;9.57;67.26
71384;BME280;67558;52.166;5.004;2023-02-04T07:20:52;103654.31;;;9.58;67.41
71384;BME280;67558;52.166;5.004;2023-02-04T07:23:18;103651.03;;;9.56;67.38
71384;BME280;67558;52.166;5.004;2023-02-04T07:25:43;103657.19;;;9.56;67.09
71384;BME280;67558;52.166;5.004;2023-02-04T07:28:09;103660.03;;;9.55;67.22
71384;BME280;67558;52.166;5.004;2023-02-04T07:30:34;103671.38;;;9.57;67.40
71384;BME280;67558;52.166;5.004;2023-02-04T07:33:02;103670.53;;;9.56;67.55
71384;BME280;67558;52.166;5.004;2023-02-04T07:35:30;103674.88;;;9.57;67.43
71384;BME280;67558;52.166;5.004;2023-02-04T07:37:55;103674.03;;;9.57;67.28
71384;BME280;67558;52.166;5.004;2023-02-04T07:40:21;103678.38;;;9.58;67.51
71384;BME280;67558;52.166;5.004;2023-02-04T07:42:46;103690.34;;;9.62;67.58
71384;BME280;67558;52.166;5.004;2023-02-04T07:45:11;103692.00;;;9.63;67.50
71384;BME280;67558;52.166;5.004;2023-02-04T07:47:37;103694.50;;;9.64;67.49
71384;BME280;67558;52.166;5.004;2023-02-04T07:50:03;103692.28;;;9.68;67.78
71384;BME280;67558;52.166;5.004;2023-02-04T07:52:28;103687.75;;;9.69;67.69
71384;BME280;67558;52.166;5.004;2023-02-04T07:54:54;103697.69;;;9.75;67.66
71384;BME280;67558;52.166;5.004;2023-02-04T07:57:19;103697.31;;;9.78;67.68
71384;BME280;67558;52.166;5.004;2023-02-04T07:59:44;103702.47;;;9.79;67.50
71384;BME280;67558;52.166;5.004;2023-02-04T08:02:10;103709.09;;;9.83;67.70
71384;BME280;67558;52.166;5.004;2023-02-04T08:04:36;103701.72;;;9.86;67.61
71384;BME280;67558;52.166;5.004;2023-02-04T08:07:02;103707.13;;;9.92;67.68
71384;BME280;67558;52.166;5.004;2023-02-04T08:09:28;103709.63;;;9.94;67.61
71384;BME280;67558;52.166;5.004;2023-02-04T08:11:53;103716.88;;;10.00;67.74
71384;BME280;67558;52.166;5.004;2023-02-04T08:14:19;103724.53;;;10.03;67.60
71384;BME280;67558;52.166;5.004;2023-02-04T08:16:44;103719.41;;;10.08;67.65
71384;BME280;67558;52.166;5.004;2023-02-04T08:19:10;103727.06;;;10.11;67.76
71384;BME280;67558;52.166;5.004;2023-02-04T08:21:35;103727.97;;;10.18;67.77
71384;BME280;67558;52.166;5.004;2023-02-04T08:24:00;103720.75;;;10.19;67.67
71384;BME280;67558;52.166;5.004;2023-02-04T08:26:26;103736.50;;;10.29;67.84
71384;BME280;67558;52.166;5.004;2023-02-04T08:28:51;103732.25;;;10.34;67.55
71384;BME280;67558;52.166;5.004;2023-02-04T08:31:17;103739.31;;;10.42;67.48
71384;BME280;67558;52.166;5.004;2023-02-04T08:33:42;103736.06;;;10.47;67.54
71384;BME280;67558;52.166;5.004;2023-02-04T08:36:08;103737.34;;;10.51;67.49
71384;BME280;67558;52.166;5.004;2023-02-04T08:38:33;103744.78;;;10.55;67.48
71384;BME280;67558;52.166;5.004;2023-02-04T08:40:59;103749.78;;;10.58;67.56
71384;BME280;67558;52.166;5.004;2023-02-04T08:43:25;103732.00;;;10.51;67.52
71384;BME280;67558;52.166;5.004;2023-02-04T08:45:51;103750.25;;;10.69;67.58
71384;BME280;67558;52.166;5.004;2023-02-04T08:48:16;103757.69;;;10.73;67.48
71384;BME280;67558;52.166;5.004;2023-02-04T08:50:41;103752.59;;;10.78;67.42
71384;BME280;67558;52.166;5.004;2023-02-04T08:53:07;103749.97;;;10.85;67.56
71384;BME280;67558;52.166;5.004;2023-02-04T08:55:32;103755.38;;;10.92;67.46
71384;BME280;67558;52.166;5.004;2023-02-04T08:57:57;103755.59;;;10.97;67.50
71384;BME280;67558;52.166;5.004;2023-02-04T09:00:23;103754.19;;;11.01;67.34
71384;BME280;67558;52.166;5.004;2023-02-04T09:02:49;103766.59;;;11.09;67.30
71384;BME280;67558;52.166;5.004;2023-02-04T09:05:14;103758.56;;;11.09;67.43
71384;BME280;67558;52.166;5.004;2023-02-04T09:07:40;103776.13;;;11.18;67.23
71384;BME280;67558;52.166;5.004;2023-02-04T09:10:05;103777.41;;;11.22;67.31
71384;BME280;67558;52.166;5.004;2023-02-04T09:12:31;103764.63;;;11.24;67.37
71384;BME280;67558;52.166;5.004;2023-02-04T09:14:56;103760.53;;;11.28;67.15
71384;BME280;67558;52.166;5.004;2023-02-04T09:17:21;103767.16;;;11.32;67.29
71384;BME280;67558;52.166;5.004;2023-02-04T09:19:47;103766.13;;;11.33;67.22
71384;BME280;67558;52.166;5.004;2023-02-04T09:22:12;103768.63;;;11.35;67.43
71384;BME280;67558;52.166;5.004;2023-02-04T09:24:38;103777.72;;;11.40;67.32
71384;BME280;67558;52.166;5.004;2023-02-04T09:27:03;103779.19;;;11.43;67.37
71384;BME280;67558;52.166;5.004;2023-02-04T09:29:28;103773.66;;;11.51;67.28
71384;BME280;67558;52.166;5.004;2023-02-04T09:31:54;103774.06;;;11.55;67.21
71384;BME280;67558;52.166;5.004;2023-02-04T09:34:19;103769.78;;;11.60;67.18
71384;BME280;67558;52.166;5.004;2023-02-04T09:36:45;103767.53;;;11.64;67.19
71384;BME280;67558;52.166;5.004;2023-02-04T09:39:10;103766.94;;;11.68;66.86
71384;BME280;67558;52.166;5.004;2023-02-04T09:41:38;103767.97;;;11.74;66.91
71384;BME280;67558;52.166;5.004;2023-02-04T09:44:05;103770.88;;;11.79;66.66
71384;BME280;67558;52.166;5.004;2023-02-04T09:46:31;103783.13;;;11.88;66.65
71384;BME280;67558;52.166;5.004;2023-02-04T09:48:57;103775.09;;;11.95;66.92
71384;BME280;67558;52.166;5.004;2023-02-04T09:51:29;103784.19;;;12.01;66.47
71384;BME280;67558;52.166;5.004;2023-02-04T09:54:14;103786.06;;;12.07;66.20
71384;BME280;67558;52.166;5.004;2023-02-04T09:56:41;103790.41;;;12.15;66.13
71384;BME280;67558;52.166;5.004;2023-02-04T09:59:18;103781.13;;;12.17;66.05
71384;BME280;67558;52.166;5.004;2023-02-04T10:01:47;103801.56;;;12.25;66.04
71384;BME280;67558;52.166;5.004;2023-02-04T10:04:22;103800.34;;;12.27;65.62
71384;BME280;67558;52.166;5.004;2023-02-04T10:06:48;103802.22;;;12.34;64.89
71384;BME280;67558;52.166;5.004;2023-02-04T10:09:15;103800.97;;;12.36;64.32
71384;BME280;67558;52.166;5.004;2023-02-04T10:11:43;103805.72;;;12.41;64.38
71384;BME280;67558;52.166;5.004;2023-02-04T10:14:14;103798.53;;;12.41;64.11
71384;BME280;67558;52.166;5.004;2023-02-04T10:16:41;103805.34;;;12.44;63.98
71384;BME280;67558;52.166;5.004;2023-02-04T10:19:12;103814.63;;;12.48;64.16
71384;BME280;67558;52.166;5.004;2023-02-04T10:21:39;103811.34;;;12.53;63.78
71384;BME280;67558;52.166;5.004;2023-02-04T10:24:23;103819.59;;;12.58;63.08
71384;BME280;67558;52.166;5.004;2023-02-04T10:26:52;103808.66;;;12.59;63.40
71384;BME280;67558;52.166;5.004;2023-02-04T10:29:20;103805.78;;;12.67;63.28
71384;BME280;67558;52.166;5.004;2023-02-04T10:31:48;103813.41;;;12.70;63.09
71384;BME280;67558;52.166;5.004;2023-02-04T10:34:32;103805.97;;;12.73;62.02
71384;BME280;67558;52.166;5.004;2023-02-04T10:36:58;103808.44;;;12.81;62.74
71384;BME280;67558;52.166;5.004;2023-02-04T10:39:28;103801.00;;;12.83;62.41
71384;BME280;67558;52.166;5.004;2023-02-04T10:41:59;103810.72;;;12.84;62.27
71384;BME280;67558;52.166;5.004;2023-02-04T10:44:32;103813.81;;;12.87;61.86
71384;BME280;67558;52.166;5.004;2023-02-04T10:47:05;103815.88;;;12.92;61.91
71384;BME280;67558;52.166;5.004;2023-02-04T10:49:31;103811.75;;;12.96;61.77
71384;BME280;67558;52.166;5.004;2023-02-04T10:51:57;103806.38;;;12.96;61.56
71384;BME280;67558;52.166;5.004;2023-02-04T10:54:26;103816.09;;;12.97;61.57
71384;BME280;67558;52.166;5.004;2023-02-04T10:57:22;103814.63;;;13.01;61.14
71384;BME280;67558;52.166;5.004;2023-02-04T10:59:49;103818.97;;;13.09;61.39
71384;BME280;67558;52.166;5.004;2023-02-04T11:05:18;103811.72;;;13.16;60.94
71384;BME280;67558;52.166;5.004;2023-02-04T11:07:45;103811.31;;;13.19;60.86
71384;BME280;67558;52.166;5.004;2023-02-04T11:10:17;103805.13;;;13.19;60.22
71384;BME280;67558;52.166;5.004;2023-02-04T11:12:45;103809.03;;;13.23;60.54
71384;BME280;67558;52.166;5.004;2023-02-04T11:15:49;103807.56;;;13.27;59.95
71384;BME280;67558;52.166;5.004;2023-02-04T11:20:45;103803.03;;;13.41;59.98
71384;BME280;67558;52.166;5.004;2023-02-04T11:26:31;103801.34;;;13.46;59.40
71384;BME280;67558;52.166;5.004;2023-02-04T11:33:49;103798.44;;;13.48;58.91
71384;BME280;67558;52.166;5.004;2023-02-04T11:36:15;103797.63;;;13.47;58.80
71384;BME280;67558;52.166;5.004;2023-02-04T11:38:47;103795.13;;;13.46;58.25
71384;BME280;67558;52.166;5.004;2023-02-04T11:41:22;103800.50;;;13.46;57.83
71384;BME280;67558;52.166;5.004;2023-02-04T11:43:53;103800.31;;;13.47;58.15
71384;BME280;67558;52.166;5.004;2023-02-04T11:46:19;103798.25;;;13.49;58.11
71384;BME280;67558;52.166;5.004;2023-02-04T11:48:45;103797.16;;;13.57;57.86
71384;BME280;67558;52.166;5.004;2023-02-04T11:51:13;103801.69;;;13.63;57.40
71384;BME280;67558;52.166;5.004;2023-02-04T11:53:40;103800.84;;;13.69;57.03
71384;BME280;67558;52.166;5.004;2023-02-04T11:56:05;103794.22;;;13.72;56.87
71384;BME280;67558;52.166;5.004;2023-02-04T11:58:32;103793.19;;;13.73;56.61
71384;BME280;67558;52.166;5.004;2023-02-04T12:00:57;103778.31;;;13.70;56.72
71384;BME280;67558;52.166;5.004;2023-02-04T12:05:50;103790.69;;;13.71;56.73
71384;BME280;67558;52.166;5.004;2023-02-04T12:13:26;103795.66;;;13.68;56.16
71384;BME280;67558;52.166;5.004;2023-02-04T12:16:00;103804.78;;;13.67;55.61
71384;BME280;67558;52.166;5.004;2023-02-04T12:18:27;103794.47;;;13.64;55.60
71384;BME280;67558;52.166;5.004;2023-02-04T12:20:54;103800.22;;;13.67;55.52
71384;BME280;67558;52.166;5.004;2023-02-04T12:23:20;103802.28;;;13.72;55.47
71384;BME280;67558;52.166;5.004;2023-02-04T12:25:45;103788.81;;;13.72;55.33
71384;BME280;67558;52.166;5.004;2023-02-04T12:28:11;103801.44;;;13.78;55.54
71384;BME280;67558;52.166;5.004;2023-02-04T12:30:36;103793.56;;;13.83;55.41
71384;BME280;67558;52.166;5.004;2023-02-04T12:33:01;103791.03;;;13.88;55.11
71384;BME280;67558;52.166;5.004;2023-02-04T12:35:27;103806.94;;;13.97;55.18
71384;BME280;67558;52.166;5.004;2023-02-04T12:37:52;103804.41;;;14.02;54.91
71384;BME280;67558;52.166;5.004;2023-02-04T12:40:19;103814.78;;;14.05;54.98
71384;BME280;67558;52.166;5.004;2023-02-04T12:42:44;103803.78;;;14.06;54.85
71384;BME280;67558;52.166;5.004;2023-02-04T12:45:10;103792.84;;;14.01;54.56
71384;BME280;67558;52.166;5.004;2023-02-04T12:47:36;103810.00;;;14.07;54.34
71384;BME280;67558;52.166;5.004;2023-02-04T12:50:03;103800.09;;;14.01;54.41
71384;BME280;67558;52.166;5.004;2023-02-04T12:52:28;103799.03;;;14.02;54.14
71384;BME280;67558;52.166;5.004;2023-02-04T12:54:54;103797.81;;;13.98;54.16
71384;BME280;67558;52.166;5.004;2023-02-04T12:57:19;103806.50;;;14.00;54.29
71384;BME280;67558;52.166;5.004;2023-02-04T12:59:45;103804.88;;;13.99;54.14
71384;BME280;67558;52.166;5.004;2023-02-04T13:02:11;103797.81;;;13.98;54.16
71384;BME280;67558;52.166;5.004;2023-02-04T13:04:36;103800.94;;;13.95;54.08
71384;BME280;67558;52.166;5.004;2023-02-04T13:07:02;103792.44;;;13.98;53.84
71384;BME280;67558;52.166;5.004;2023-02-04T13:09:27;103790.59;;;13.98;53.92